aviador You're here:

OMAA Decoded Metar

ABU DHABI in UNITED ARAB EMIRATES
Report Time2018-01-22 01:00:00
UTC Time2018-01-22 01:54:39
Flight Rules mvfr MVFR
Wind290° at 04 kt
W.Decomp.*RWY 31: 3.7 kt HW 1.4 kt LCW
W.Rank290° ranks 5
Current wind is below 290° avg. (9.1)
Visibility6000 m
Phenomena:N/A
Clouds:N/A
Expected CloudBase > 2,000 ft AGL from Temp-Dew spread
CeilingNone
Temp18°C (ISA +3)
Dew Point13°C (73% RH)
AAT17.5°C
QNH1017 hPa
Density Alt528 ft
Elevation89 ft
Report Wrong Elevation
Raw Report
METAR OMAA 220100Z 29004KT 6000 NSC 18/13 Q1017 NOSIG=

Extra information for OMAA:More info

Metar Taf Metar & Taf Last 4 Metars F.Rules Stats Wind Profile Meteogram Temp Stats Airport Information Weather charts Add Link Nearby VenuesMetar ALERT Operation Metar Decoded Social comments